Terminal Aerodrome Forecast
Issued by NWS

Home | Current Version | Previous Version | Text Only | Print | Product List | Glossary On
Versions: 1 2 3 4 5 6 7 8 9 10 11 12 13 14
802
FTUS46 KSEW 042103 AAA
TAFCLM
TAF AMD
KCLM 042103Z 0421/0518 VRB03KT P6SM SCT025 OVC045
      TEMPO 0421/0424 BKN025 OVC045
     FM050000 30010KT P6SM SCT025 BKN050
      TEMPO 0512/0516 BKN025 OVC050=

USA.gov is the U.S. government's official web portal to all federal, state and local government web resources and services.